Time;durP1;ratioP1;P1;durP2;ratioP2;P2;SDS_P1;SDS_P2;PMS_P1;PMS_P2;Temp;Humidity;BMP_temperature;BMP_pressure;BME280_temperature;BME280_humidity;BME280_pressure;Samples;Min_cycle;Max_cycle;Signal;HPM_P1;HPM_P2
2023/12/20 00:01:11;;;;;;;6.20;1.70;;;;;;;5.12;100.00;101356.63;5072113;28;20403;-46
2023/12/20 00:03:41;;;;;;;9.85;2.20;;;;;;;5.14;100.00;101360.91;5074206;28;20066;-45
2023/12/20 00:06:10;;;;;;;10.65;2.08;;;;;;;5.13;100.00;101346.16;5074240;28;20055;-47
2023/12/20 00:08:38;;;;;;;11.15;2.20;;;;;;;5.10;100.00;101348.88;5074152;28;20048;-46
2023/12/20 00:11:06;;;;;;;11.40;2.42;;;;;;;5.07;100.00;101342.00;5072932;28;20048;-45
2023/12/20 00:13:35;;;;;;;12.25;2.40;;;;;;;5.04;100.00;101349.91;5069712;28;20048;-46
2023/12/20 00:16:03;;;;;;;12.10;2.28;;;;;;;5.03;100.00;101339.53;5072815;28;20052;-47
2023/12/20 00:18:34;;;;;;;10.23;3.05;;;;;;;5.02;100.00;101353.50;5073843;28;20036;-46
2023/12/20 00:21:04;;;;;;;11.30;2.40;;;;;;;5.00;100.00;101342.25;5074011;28;20044;-47
2023/12/20 00:23:35;;;;;;;10.38;3.17;;;;;;;4.99;100.00;101338.81;5074053;28;20369;-47
2023/12/20 00:26:04;;;;;;;10.60;2.75;;;;;;;4.96;100.00;101348.47;5073877;28;20052;-46
2023/12/20 00:28:32;;;;;;;10.13;2.42;;;;;;;4.96;100.00;101348.47;5073715;28;20078;-46
2023/12/20 00:31:00;;;;;;;12.27;2.88;;;;;;;4.93;100.00;101338.16;5072479;28;20056;-46
2023/12/20 00:33:29;;;;;;;12.88;3.40;;;;;;;4.94;100.00;101335.50;5073758;28;20106;-45
2023/12/20 00:35:57;;;;;;;9.50;2.55;;;;;;;4.91;100.00;101333.84;5072232;28;20048;-45
2023/12/20 00:38:26;;;;;;;11.32;2.95;;;;;;;4.87;100.00;101345.28;5073521;28;20048;-46
2023/12/20 00:40:54;;;;;;;12.70;3.30;;;;;;;4.90;100.00;101326.06;5073527;28;20377;-46
2023/12/20 00:43:23;;;;;;;10.25;3.00;;;;;;;4.88;100.00;101331.34;5072134;28;20044;-47
2023/12/20 00:45:51;;;;;;;13.38;2.78;;;;;;;4.87;100.00;101345.28;5073052;28;20044;-51
2023/12/20 00:48:19;;;;;;;7.18;2.55;;;;;;;4.82;100.00;101347.19;5073353;28;20060;-50
2023/12/20 00:50:48;;;;;;;17.48;3.22;;;;;;;4.79;100.00;101346.44;5071790;28;20148;-46
2023/12/20 00:53:16;;;;;;;17.85;2.90;;;;;;;4.79;100.00;101349.88;5072966;28;20098;-47
2023/12/20 00:55:46;;;;;;;12.20;2.63;;;;;;;4.77;100.00;101340.41;5073130;28;20048;-46
2023/12/20 00:58:15;;;;;;;12.70;2.80;;;;;;;4.76;100.00;101343.91;5073101;28;20059;-57
2023/12/20 01:00:44;;;;;;;11.40;2.65;;;;;;;4.74;100.00;101341.38;5073202;28;20788;-58
2023/12/20 01:03:12;;;;;;;14.98;3.20;;;;;;;4.70;100.00;101338.03;5073320;28;20052;-57
2023/12/20 01:05:40;;;;;;;18.33;3.03;;;;;;;4.63;100.00;101339.09;5073249;28;20040;-58
2023/12/20 01:08:08;;;;;;;9.52;2.03;;;;;;;4.61;100.00;101340.06;5073269;28;20045;-58
2023/12/20 01:10:39;;;;;;;16.75;2.80;;;;;;;4.57;100.00;101334.09;5073317;28;20520;-58
2023/12/20 01:13:09;;;;;;;11.68;2.17;;;;;;;4.52;100.00;101341.22;5073024;28;20048;-57
2023/12/20 01:15:37;;;;;;;7.80;2.20;;;;;;;4.51;100.00;101347.31;5073172;28;20388;-58
2023/12/20 01:18:05;;;;;;;20.27;2.50;;;;;;;4.51;100.00;101331.69;5071671;28;20051;-58
2023/12/20 01:20:33;;;;;;;12.27;2.50;;;;;;;4.48;100.00;101332.63;5072803;28;20148;-57
2023/12/20 01:23:01;;;;;;;11.88;2.75;;;;;;;4.46;100.00;101326.63;5072796;28;20079;-58
2023/12/20 01:25:30;;;;;;;17.20;3.30;;;;;;;4.46;100.00;101334.44;5072360;28;20051;-58
2023/12/20 01:27:58;;;;;;;10.77;2.40;;;;;;;4.42;100.00;101337.19;5068675;28;20357;-58
2023/12/20 01:30:27;;;;;;;15.23;3.28;;;;;;;4.40;100.00;101337.22;5070572;28;20538;-58
2023/12/20 01:32:56;;;;;;;12.05;2.50;;;;;;;4.36;100.00;101331.28;5072763;28;20060;-58
2023/12/20 01:35:27;;;;;;;12.15;2.45;;;;;;;4.35;100.00;101331.31;5072651;28;20494;-58
2023/12/20 01:37:56;;;;;;;10.82;2.63;;;;;;;4.34;100.00;101333.06;5072497;28;20052;-57
2023/12/20 01:40:25;;;;;;;12.07;3.95;;;;;;;4.32;100.00;101339.22;5071984;28;20048;-58
2023/12/20 01:43:00;;;;;;;9.18;2.70;;;;;;;4.30;100.00;101346.25;5068482;28;20476;-58
2023/12/20 01:45:29;;;;;;;14.23;3.10;;;;;;;4.26;100.00;101331.63;5071369;28;20044;-58
2023/12/20 01:47:59;;;;;;;17.73;2.90;;;;;;;4.27;100.00;101330.69;5072427;28;20053;-57
2023/12/20 01:50:28;;;;;;;11.77;2.92;;;;;;;4.22;100.00;101333.47;5069134;28;20407;-57
2023/12/20 01:52:59;;;;;;;13.88;2.00;;;;;;;4.22;100.00;101336.91;5069226;28;20040;-58
2023/12/20 01:55:30;;;;;;;14.50;2.28;;;;;;;4.20;100.00;101346.53;5070638;28;20052;-58
2023/12/20 01:58:00;;;;;;;11.00;2.13;;;;;;;4.18;100.00;101344.88;5071874;28;20129;-57
2023/12/20 02:00:31;;;;;;;14.90;2.17;;;;;;;4.16;100.00;101346.66;5072198;28;20527;-57
2023/12/20 02:03:02;;;;;;;11.20;1.85;;;;;;;4.16;100.00;101349.25;5071999;28;20106;-57
2023/12/20 02:05:31;;;;;;;15.13;2.05;;;;;;;4.16;100.00;101346.66;5072006;28;20629;-58
2023/12/20 02:07:59;;;;;;;13.93;2.25;;;;;;;4.14;100.00;101343.25;5071926;28;20476;-58
2023/12/20 02:10:28;;;;;;;12.27;2.22;;;;;;;4.14;100.00;101340.66;5070327;28;20093;-57
2023/12/20 02:12:57;;;;;;;12.25;1.80;;;;;;;4.13;100.00;101337.22;5067999;28;20048;-57
2023/12/20 02:15:25;;;;;;;12.10;2.92;;;;;;;4.13;100.00;101339.81;5071738;28;20094;-57
2023/12/20 02:17:55;;;;;;;16.90;2.70;;;;;;;4.15;100.00;101350.19;5072019;28;20040;-57
2023/12/20 02:20:24;;;;;;;13.50;2.08;;;;;;;4.13;100.00;101345.03;5072150;28;20045;-58
2023/12/20 02:22:53;;;;;;;19.38;3.67;;;;;;;4.12;100.00;101353.72;5070183;28;20272;-58
2023/12/20 02:25:21;;;;;;;8.23;1.92;;;;;;;4.13;100.00;101352.81;5071574;28;20131;-58
2023/12/20 02:27:51;;;;;;;14.05;2.88;;;;;;;4.11;100.00;101345.97;5071704;28;20522;-58
2023/12/20 02:30:19;;;;;;;13.57;2.70;;;;;;;4.12;100.00;101347.63;5070044;28;20090;-58
2023/12/20 02:32:52;;;;;;;13.10;2.95;;;;;;;4.12;100.00;101342.44;5071730;28;20476;-58
2023/12/20 02:35:20;;;;;;;13.18;2.00;;;;;;;4.13;100.00;101338.94;5071852;28;20048;-57
2023/12/20 02:37:49;;;;;;;10.32;2.30;;;;;;;4.11;100.00;101344.19;5071734;28;20098;-58
2023/12/20 02:40:18;;;;;;;12.15;2.25;;;;;;;4.09;100.00;101335.59;5071928;28;20464;-58
2023/12/20 02:42:47;;;;;;;15.55;2.90;;;;;;;4.09;100.00;101335.59;5070362;28;20057;-58
2023/12/20 02:45:16;;;;;;;10.25;2.72;;;;;;;4.13;100.00;101333.72;5071566;28;20044;-59
2023/12/20 02:47:44;;;;;;;10.95;2.17;;;;;;;4.10;100.00;101326.88;5071728;28;20399;-58
2023/12/20 02:50:12;;;;;;;11.48;3.53;;;;;;;4.11;100.00;101323.38;5071401;28;20052;-58
2023/12/20 02:52:40;;;;;;;15.02;2.83;;;;;;;4.11;100.00;101314.72;5071429;28;20228;-58
2023/12/20 02:55:09;;;;;;;14.75;2.25;;;;;;;4.15;100.00;101314.56;5071385;28;20456;-58
2023/12/20 02:57:41;;;;;;;18.15;3.20;;;;;;;4.18;100.00;101311.84;5070119;28;20611;-58
2023/12/20 03:00:11;;;;;;;16.23;2.80;;;;;;;4.19;100.00;101310.97;5071683;28;20048;-58
2023/12/20 03:02:39;;;;;;;14.65;3.20;;;;;;;4.20;100.00;101298.81;5071436;28;20545;-58
2023/12/20 03:05:08;;;;;;;14.25;2.85;;;;;;;4.23;100.00;101309.97;5071606;28;20503;-58
2023/12/20 03:07:38;;;;;;;17.10;3.58;;;;;;;4.23;100.00;101302.16;5071244;28;20529;-58
2023/12/20 03:10:09;;;;;;;19.20;3.63;;;;;;;4.32;100.00;101300.16;5071346;28;20058;-57
2023/12/20 03:12:51;;;;;;;15.05;3.80;;;;;;;4.30;100.00;101307.19;5070138;28;20098;-58
2023/12/20 03:15:21;;;;;;;11.05;3.90;;;;;;;4.32;100.00;101302.78;5071385;28;20059;-58
2023/12/20 03:17:49;;;;;;;18.23;3.83;;;;;;;4.35;100.00;101295.72;5075178;28;20654;-59
2023/12/20 03:20:18;;;;;;;14.43;3.88;;;;;;;4.35;100.00;101294.84;5075072;28;20064;-58
2023/12/20 03:22:46;;;;;;;11.65;3.47;;;;;;;4.33;100.00;101287.09;5075138;28;20045;-58
2023/12/20 03:25:14;;;;;;;17.08;3.80;;;;;;;4.33;100.00;101294.91;5075075;28;20120;-58
2023/12/20 03:27:43;;;;;;;12.13;3.58;;;;;;;4.31;100.00;101286.31;5075059;28;20541;-58
2023/12/20 03:30:13;;;;;;;15.27;3.10;;;;;;;4.33;100.00;101288.84;5075241;28;20045;-58
2023/12/20 03:32:42;;;;;;;15.98;3.50;;;;;;;4.31;100.00;101288.03;5075121;28;20040;-58
2023/12/20 03:35:10;;;;;;;12.63;2.65;;;;;;;4.28;100.00;101285.53;5075204;28;20464;-57
2023/12/20 03:37:38;;;;;;;12.98;2.80;;;;;;;4.23;100.00;101286.53;5074698;28;20500;-58
2023/12/20 03:40:07;;;;;;;12.57;4.10;;;;;;;4.27;100.00;101289.91;5074470;28;20045;-58
2023/12/20 03:42:36;;;;;;;11.50;2.50;;;;;;;4.21;100.00;101284.88;5074789;28;20048;-58
2023/12/20 03:45:04;;;;;;;11.07;2.72;;;;;;;4.19;100.00;101287.53;5074308;28;20745;-58
2023/12/20 03:47:34;;;;;;;17.73;3.35;;;;;;;4.16;100.00;101290.25;5070677;28;20514;-58
2023/12/20 03:50:02;;;;;;;8.98;2.55;;;;;;;4.13;100.00;101285.13;5073180;28;20041;-58
2023/12/20 03:52:30;;;;;;;13.95;2.97;;;;;;;4.11;100.00;101286.91;5074749;28;20041;-57
2023/12/20 03:54:58;;;;;;;17.67;4.18;;;;;;;4.11;100.00;101286.09;5074628;28;20106;-57
2023/12/20 03:57:27;;;;;;;17.17;3.30;;;;;;;4.09;100.00;101286.13;5074499;28;20415;-58
2023/12/20 03:59:55;;;;;;;14.43;3.20;;;;;;;4.10;100.00;101285.22;5073208;28;20105;-58
2023/12/20 04:02:23;;;;;;;15.27;3.70;;;;;;;4.09;100.00;101286.13;5074326;28;20048;-58
2023/12/20 04:04:53;;;;;;;13.73;3.10;;;;;;;4.07;100.00;101280.09;5074415;28;20055;-46
2023/12/20 04:07:24;;;;;;;16.55;3.00;;;;;;;4.12;100.00;101286.03;5074259;28;20094;-45
2023/12/20 04:09:52;;;;;;;15.32;3.42;;;;;;;4.11;100.00;101291.28;5073659;28;20525;-46
2023/12/20 04:12:20;;;;;;;15.98;2.90;;;;;;;4.10;100.00;101285.22;5073735;28;20058;-46
2023/12/20 04:14:48;;;;;;;16.92;2.80;;;;;;;4.12;100.00;101286.03;5072805;28;20515;-45
2023/12/20 04:17:18;;;;;;;14.85;3.45;;;;;;;4.10;100.00;101281.78;5069610;28;20114;-47
2023/12/20 04:19:46;;;;;;;13.98;2.95;;;;;;;4.12;100.00;101282.56;5072817;28;20040;-48
2023/12/20 04:22:16;;;;;;;12.60;2.75;;;;;;;4.15;100.00;101280.72;5073923;28;20384;-45
2023/12/20 04:24:44;;;;;;;12.68;2.63;;;;;;;4.14;100.00;101292.03;5069321;28;20060;-46
2023/12/20 04:27:12;;;;;;;17.25;3.42;;;;;;;4.13;100.00;101294.69;5070364;28;20128;-46
2023/12/20 04:29:41;;;;;;;13.55;4.05;;;;;;;4.12;100.00;101283.44;5073708;28;20123;-44
2023/12/20 04:32:09;;;;;;;17.38;3.35;;;;;;;4.13;100.00;101279.94;5073901;28;20123;-45
2023/12/20 04:34:40;;;;;;;14.40;2.95;;;;;;;4.14;100.00;101284.22;5073844;28;20043;-48
2023/12/20 04:37:08;;;;;;;12.15;3.30;;;;;;;4.14;100.00;101280.78;5073702;28;20123;-46
2023/12/20 04:39:38;;;;;;;20.30;3.55;;;;;;;4.16;100.00;101284.16;5073874;28;20131;-46
2023/12/20 04:42:06;;;;;;;16.65;4.18;;;;;;;4.17;100.00;101296.28;5073464;28;20131;-45
2023/12/20 04:44:34;;;;;;;16.27;3.10;;;;;;;4.14;100.00;101283.38;5073561;28;20040;-46
2023/12/20 04:47:03;;;;;;;16.52;2.70;;;;;;;4.15;100.00;101285.94;5073599;28;20040;-48
2023/12/20 04:49:31;;;;;;;17.77;3.25;;;;;;;4.16;100.00;101284.16;5073245;28;20060;-50
2023/12/20 04:51:59;;;;;;;14.40;2.85;;;;;;;4.15;100.00;101291.13;5069830;28;20040;-49
2023/12/20 04:54:27;;;;;;;21.95;4.15;;;;;;;4.15;100.00;101280.72;5070856;28;20132;-49
2023/12/20 04:56:57;;;;;;;19.92;3.40;;;;;;;4.19;100.00;101286.69;5070484;28;20048;-46
2023/12/20 04:59:25;;;;;;;15.52;3.58;;;;;;;4.21;100.00;101288.34;5069800;28;20055;-46
2023/12/20 05:01:53;;;;;;;13.77;3.15;;;;;;;4.25;100.00;101280.44;5072441;28;20047;-50
2023/12/20 05:04:21;;;;;;;16.88;3.65;;;;;;;4.22;100.00;101279.63;5073343;28;20040;-50
2023/12/20 05:06:50;;;;;;;18.65;3.25;;;;;;;4.25;100.00;101283.03;5072271;28;20049;-47
2023/12/20 05:09:18;;;;;;;17.70;3.28;;;;;;;4.30;100.00;101275.94;5069604;28;20530;-48
2023/12/20 05:11:46;;;;;;;21.80;3.70;;;;;;;4.30;100.00;101274.19;5071547;28;20048;-49
2023/12/20 05:14:17;;;;;;;20.80;3.75;;;;;;;4.31;100.00;101262.00;5071629;28;20048;-49
2023/12/20 05:16:45;;;;;;;19.15;4.53;;;;;;;4.36;100.00;101257.50;5072858;28;20142;-49
2023/12/20 05:19:16;;;;;;;15.95;3.70;;;;;;;4.38;100.00;101250.50;5072764;28;20049;-51
2023/12/20 05:21:44;;;;;;;19.50;3.42;;;;;;;4.38;100.00;101250.50;5071057;28;20060;-51
2023/12/20 05:24:12;;;;;;;21.15;4.53;;;;;;;4.43;100.00;101250.34;5069351;28;20047;-47
2023/12/20 05:26:41;;;;;;;20.10;4.95;;;;;;;4.45;100.00;101249.38;5071337;28;20159;-48
2023/12/20 05:29:09;;;;;;;19.38;5.78;;;;;;;4.46;100.00;101245.88;5072343;28;20115;-46
2023/12/20 05:31:38;;;;;;;22.45;6.20;;;;;;;4.47;100.00;101246.72;5072567;28;20048;-47
2023/12/20 05:34:07;;;;;;;23.33;6.47;;;;;;;4.51;100.00;101254.41;5072577;28;20067;-46
2023/12/20 05:36:35;;;;;;;18.30;4.10;;;;;;;4.55;100.00;101253.41;5072281;28;20495;-46
2023/12/20 05:39:07;;;;;;;20.90;3.58;;;;;;;4.55;100.00;101250.81;5071290;28;20048;-47
2023/12/20 05:41:36;;;;;;;16.00;3.17;;;;;;;4.59;100.00;101263.72;5072356;28;20072;-46
2023/12/20 05:44:04;;;;;;;20.15;3.75;;;;;;;4.66;100.00;101252.19;5072381;28;20036;-48
2023/12/20 05:46:32;;;;;;;18.85;3.40;;;;;;;4.67;100.00;101267.75;5072408;28;20051;-47
2023/12/20 05:49:03;;;;;;;14.05;2.78;;;;;;;4.71;100.00;101263.31;5072192;28;20126;-51
2023/12/20 05:51:31;;;;;;;20.30;3.95;;;;;;;4.73;100.00;101267.56;5072193;28;20044;-46
2023/12/20 05:53:59;;;;;;;17.55;4.43;;;;;;;4.76;100.00;101264.00;5072019;28;20048;-45
2023/12/20 05:56:27;;;;;;;13.77;3.15;;;;;;;4.82;100.00;101266.38;5071866;28;20084;-48
2023/12/20 05:58:58;;;;;;;18.42;2.75;;;;;;;4.84;100.00;101269.81;5072165;28;20044;-50
2023/12/20 06:01:27;;;;;;;18.60;2.83;;;;;;;4.94;100.00;101272.09;5072050;28;20052;-47
2023/12/20 06:03:56;;;;;;;18.58;3.63;;;;;;;4.91;100.00;101279.09;5071961;28;20048;-47
2023/12/20 06:06:25;;;;;;;21.02;3.63;;;;;;;4.94;100.00;101272.94;5072003;28;20468;-48
2023/12/20 06:08:54;;;;;;;17.35;3.28;;;;;;;4.99;100.00;101280.59;5071406;28;20068;-58
2023/12/20 06:11:22;;;;;;;19.42;2.53;;;;;;;5.00;100.00;101277.91;5068628;28;20598;-58
2023/12/20 06:13:51;;;;;;;19.52;2.55;;;;;;;5.02;100.00;101272.69;5068025;28;20055;-47
2023/12/20 06:16:20;;;;;;;17.30;2.88;;;;;;;5.06;100.00;101269.91;5071956;28;20102;-47
2023/12/20 06:18:48;;;;;;;18.42;2.97;;;;;;;5.13;100.00;101270.53;5071820;28;20136;-45
2023/12/20 06:21:16;;;;;;;23.42;2.97;;;;;;;5.13;100.00;101267.94;5071679;28;20507;-58
2023/12/20 06:23:46;;;;;;;21.13;3.17;;;;;;;5.13;100.00;101272.31;5071819;28;20094;-57
2023/12/20 06:26:14;;;;;;;16.92;3.08;;;;;;;5.16;100.00;101267.81;5070506;28;20044;-58
2023/12/20 06:28:42;;;;;;;16.77;2.75;;;;;;;5.20;100.00;101269.41;5067587;28;20056;-48
2023/12/20 06:31:11;;;;;;;18.33;2.88;;;;;;;5.23;100.00;101269.28;5070483;28;20058;-46
2023/12/20 06:33:40;;;;;;;14.40;2.78;;;;;;;5.25;100.00;101269.25;5071705;28;20425;-45
2023/12/20 06:36:10;;;;;;;20.00;3.38;;;;;;;5.28;100.00;101271.75;5071549;28;20040;-47
2023/12/20 06:38:38;;;;;;;23.30;3.67;;;;;;;5.26;100.00;101263.09;5069098;28;20052;-57
2023/12/20 06:41:08;;;;;;;14.48;2.78;;;;;;;5.23;100.00;101258.84;5067330;28;20052;-58
2023/12/20 06:43:36;;;;;;;16.20;2.97;;;;;;;5.25;100.00;101262.28;5065753;28;20052;-58
2023/12/20 06:46:16;;;;;;;14.40;2.92;;;;;;;5.30;100.00;101269.91;5068693;28;20506;-58
2023/12/20 06:48:45;;;;;;;15.02;3.00;;;;;;;5.31;100.00;101258.59;5068962;28;20044;-57
2023/12/20 06:51:16;;;;;;;19.75;3.17;;;;;;;5.31;100.00;101257.75;5071658;28;20032;-59
2023/12/20 06:53:45;;;;;;;18.92;3.33;;;;;;;5.32;100.00;101254.25;5073979;28;20123;-58
2023/12/20 06:56:14;;;;;;;20.95;3.60;;;;;;;5.32;100.00;101257.69;5075453;28;20441;-58
2023/12/20 06:58:46;;;;;;;17.63;3.35;;;;;;;5.31;100.00;101257.75;5075445;28;20090;-48
2023/12/20 07:01:15;;;;;;;14.82;2.65;;;;;;;5.33;100.00;101262.00;5075500;28;20048;-47
2023/12/20 07:03:43;;;;;;;16.80;3.40;;;;;;;5.35;100.00;101247.13;5074075;28;20045;-49
2023/12/20 07:06:12;;;;;;;15.80;3.58;;;;;;;5.37;100.00;101254.91;5072006;28;20044;-47
2023/12/20 07:08:41;;;;;;;15.48;3.47;;;;;;;5.34;100.00;101245.41;5071673;28;20040;-45
2023/12/20 07:11:09;;;;;;;16.65;2.90;;;;;;;5.35;100.00;101248.91;5074498;28;20449;-48
2023/12/20 07:13:39;;;;;;;17.05;3.25;;;;;;;5.34;100.00;101248.03;5075357;28;20048;-48
2023/12/20 07:16:07;;;;;;;17.00;2.97;;;;;;;5.35;100.00;101241.06;5075373;28;20051;-50
2023/12/20 07:18:35;;;;;;;14.98;2.67;;;;;;;5.36;100.00;101242.78;5073817;28;20057;-46
2023/12/20 07:21:04;;;;;;;16.45;3.00;;;;;;;5.38;100.00;101246.16;5073424;28;20504;-44
2023/12/20 07:23:32;;;;;;;15.77;3.35;;;;;;;5.36;100.00;101246.22;5074794;28;20415;-46
2023/12/20 07:26:00;;;;;;;18.88;2.97;;;;;;;5.37;100.00;101250.53;5074948;28;20123;-45
2023/12/20 07:28:29;;;;;;;15.57;2.88;;;;;;;5.40;100.00;101258.25;5075044;28;20143;-46
2023/12/20 07:30:58;;;;;;;20.38;3.90;;;;;;;5.40;100.00;101246.97;5074915;28;20134;-46
2023/12/20 07:33:26;;;;;;;16.65;3.00;;;;;;;5.41;100.00;101253.88;5073167;28;20526;-47
2023/12/20 07:35:57;;;;;;;11.20;2.80;;;;;;;5.42;100.00;101253.81;5070199;28;20102;-47
2023/12/20 07:38:25;;;;;;;17.98;3.30;;;;;;;5.41;100.00;101259.09;5074504;28;20060;-45
2023/12/20 07:40:53;;;;;;;18.42;4.13;;;;;;;5.42;100.00;101247.75;5074572;28;20051;-46
2023/12/20 07:43:25;;;;;;;17.10;2.83;;;;;;;5.41;100.00;101246.91;5074165;28;20059;-45
2023/12/20 07:45:53;;;;;;;15.48;2.72;;;;;;;5.42;100.00;101248.59;5074328;28;20444;-46
2023/12/20 07:48:22;;;;;;;13.98;3.13;;;;;;;5.47;100.00;101248.44;5074578;28;20048;-47
2023/12/20 07:50:52;;;;;;;16.92;3.55;;;;;;;5.45;100.00;101255.47;5074453;28;20102;-47
2023/12/20 07:53:20;;;;;;;15.00;3.47;;;;;;;5.45;100.00;101246.78;5074503;28;20443;-49
2023/12/20 07:55:49;;;;;;;14.30;3.03;;;;;;;5.46;100.00;101240.69;5074335;28;20519;-47
2023/12/20 07:58:17;;;;;;;18.38;3.28;;;;;;;5.47;100.00;101251.06;5074520;28;20048;-45
2023/12/20 08:00:49;;;;;;;18.77;3.53;;;;;;;5.46;100.00;101257.16;5073045;28;20163;-46
2023/12/20 08:03:17;;;;;;;12.82;2.42;;;;;;;5.48;100.00;101257.97;5073449;28;20094;-53
2023/12/20 08:05:47;;;;;;;13.05;3.30;;;;;;;5.49;100.00;101270.09;5074094;28;20278;-46
2023/12/20 08:08:15;;;;;;;15.10;3.25;;;;;;;5.51;100.00;101270.06;5074307;28;20454;-45
2023/12/20 08:10:43;;;;;;;20.63;3.55;;;;;;;5.55;100.00;101264.66;5074099;28;20045;-49
2023/12/20 08:13:11;;;;;;;17.73;3.65;;;;;;;5.57;100.00;101268.06;5073985;28;20040;-49
2023/12/20 08:15:39;;;;;;;15.23;3.13;;;;;;;5.56;100.00;101265.50;5074032;28;20091;-47
2023/12/20 08:18:08;;;;;;;14.52;3.47;;;;;;;5.57;100.00;101265.44;5073976;28;20086;-48
2023/12/20 08:20:36;;;;;;;16.30;3.60;;;;;;;5.59;100.00;101266.25;5074027;28;20072;-49
2023/12/20 08:23:14;;;;;;;22.05;3.92;;;;;;;5.58;100.00;101272.38;5074093;28;20051;-46
2023/12/20 08:25:42;;;;;;;13.82;3.20;;;;;;;5.61;100.00;101270.56;5073989;28;20044;-46
2023/12/20 08:28:11;;;;;;;16.95;2.83;;;;;;;5.61;100.00;101266.19;5073817;28;20051;-48
2023/12/20 08:30:39;;;;;;;25.02;3.25;;;;;;;5.62;100.00;101264.41;5069958;28;20036;-46
2023/12/20 08:33:11;;;;;;;16.63;2.95;;;;;;;5.64;100.00;101254.78;5071237;28;20135;-49
2023/12/20 08:35:40;;;;;;;14.93;3.80;;;;;;;5.64;100.00;101253.00;5073649;28;20052;-46
2023/12/20 08:38:08;;;;;;;14.43;2.90;;;;;;;5.66;100.00;101247.72;5072366;28;20037;-47
2023/12/20 08:40:39;;;;;;;19.00;3.25;;;;;;;5.68;100.00;101244.16;5073494;28;20534;-50
2023/12/20 08:43:07;;;;;;;12.57;2.78;;;;;;;5.71;100.00;101248.41;5073581;28;20048;-47
2023/12/20 08:45:35;;;;;;;15.75;2.80;;;;;;;5.74;100.00;101245.72;5072211;28;20048;-46
2023/12/20 08:48:04;;;;;;;17.05;3.45;;;;;;;5.74;100.00;101246.56;5073439;28;20044;-45
2023/12/20 08:50:36;;;;;;;15.57;3.30;;;;;;;5.77;100.00;101240.38;5073169;28;20040;-46
2023/12/20 08:53:05;;;;;;;20.70;3.15;;;;;;;5.77;100.00;101237.75;5073063;28;20522;-46
2023/12/20 08:55:33;;;;;;;17.92;3.50;;;;;;;5.78;100.00;101231.63;5073127;28;20056;-45
2023/12/20 08:58:03;;;;;;;18.08;2.72;;;;;;;5.84;100.00;101227.94;5072168;28;20052;-45
2023/12/20 09:00:32;;;;;;;15.60;2.75;;;;;;;5.86;100.00;101226.97;5069772;28;20048;-45
2023/12/20 09:03:00;;;;;;;16.15;2.90;;;;;;;5.87;100.00;101226.03;5072016;28;20488;-45
2023/12/20 09:05:28;;;;;;;16.58;2.80;;;;;;;5.89;100.00;101229.44;5070452;28;20048;-47
2023/12/20 09:07:57;;;;;;;19.65;2.70;;;;;;;5.91;100.00;101227.59;5069776;28;20871;-45
2023/12/20 09:10:25;;;;;;;20.00;3.65;;;;;;;5.89;100.00;101228.56;5069379;28;20058;-44
2023/12/20 09:12:56;;;;;;;19.25;3.15;;;;;;;5.86;100.00;101233.91;5068802;28;20412;-48
2023/12/20 09:15:26;;;;;;;20.58;2.90;;;;;;;5.86;100.00;101232.19;5072782;28;20048;-48
2023/12/20 09:17:55;;;;;;;21.17;2.95;;;;;;;5.86;100.00;101226.97;5072957;28;20056;-48
2023/12/20 09:20:23;;;;;;;17.48;2.92;;;;;;;5.89;100.00;101232.06;5072682;28;20375;-48
2023/12/20 09:22:52;;;;;;;14.88;3.33;;;;;;;5.91;100.00;101235.44;5072730;28;20053;-48
2023/12/20 09:25:22;;;;;;;19.17;3.03;;;;;;;5.91;100.00;101232.81;5072713;28;20521;-47
2023/12/20 09:27:50;;;;;;;23.27;3.13;;;;;;;5.88;100.00;101239.94;5072919;28;20767;-47
2023/12/20 09:30:19;;;;;;;20.58;2.72;;;;;;;5.89;100.00;101236.41;5072686;28;20040;-48
2023/12/20 09:32:56;;;;;;;20.90;2.92;;;;;;;5.89;100.00;101229.44;5071178;28;20063;-48
2023/12/20 09:35:25;;;;;;;14.10;2.92;;;;;;;5.87;100.00;101231.25;5072597;28;20110;-48
2023/12/20 09:37:54;;;;;;;17.88;3.35;;;;;;;5.89;100.00;101231.19;5072506;28;20048;-46
2023/12/20 09:40:26;;;;;;;15.82;3.45;;;;;;;5.84;100.00;101239.19;5072827;28;20136;-47
2023/12/20 09:42:58;;;;;;;13.90;2.42;;;;;;;5.85;100.00;101240.91;5072284;28;20045;-45
2023/12/20 09:45:26;;;;;;;13.68;2.85;;;;;;;5.80;100.00;101232.41;5072266;28;20041;-46
2023/12/20 09:47:59;;;;;;;17.52;3.30;;;;;;;5.79;100.00;101235.91;5071520;28;20500;-46
2023/12/20 09:50:27;;;;;;;;;;;;;;;5.81;100.00;101231.50;5069615;28;20052;-47
2023/12/20 09:52:59;;;;;;;15.30;2.40;;;;;;;5.79;100.00;101235.91;5070292;28;20383;-49
2023/12/20 09:55:28;;;;;;;18.35;3.35;;;;;;;5.82;100.00;101235.81;5072082;28;20419;-50
2023/12/20 09:57:58;;;;;;;18.10;3.08;;;;;;;5.80;100.00;101235.00;5072070;28;20052;-47
2023/12/20 10:00:26;;;;;;;19.73;3.40;;;;;;;5.80;100.00;101232.41;5072012;28;20044;-49
2023/12/20 10:02:58;;;;;;;14.65;3.05;;;;;;;5.80;100.00;101247.22;5072289;28;20052;-48
2023/12/20 10:05:31;;;;;;;16.63;3.20;;;;;;;5.83;100.00;101249.72;5071999;28;20071;-50
2023/12/20 10:08:01;;;;;;;25.48;4.32;;;;;;;5.82;100.00;101241.03;5071903;28;20451;-49
2023/12/20 10:10:30;;;;;;;16.95;3.05;;;;;;;5.81;100.00;101255.00;5071711;28;20076;-46
2023/12/20 10:13:13;;;;;;;17.37;2.80;;;;;;;5.84;100.00;101260.09;5070623;28;20059;-47
2023/12/20 10:15:42;;;;;;;17.20;3.50;;;;;;;5.86;100.00;101257.41;5068548;28;20056;-48
2023/12/20 10:18:13;;;;;;;14.60;2.67;;;;;;;5.88;100.00;101246.00;5070639;28;20128;-47
2023/12/20 10:20:42;;;;;;;16.77;2.47;;;;;;;5.91;100.00;101251.09;5070076;28;20606;-46
2023/12/20 10:23:13;;;;;;;15.75;3.35;;;;;;;5.85;100.00;101256.56;5070199;28;20098;-47
2023/12/20 10:25:41;;;;;;;17.73;3.88;;;;;;;5.87;100.00;101251.28;5071277;28;20422;-46
2023/12/20 10:28:11;;;;;;;17.63;3.70;;;;;;;5.91;100.00;101258.09;5071917;28;20128;-58
2023/12/20 10:30:41;;;;;;;16.75;3.55;;;;;;;5.92;100.00;101263.25;5071961;28;20052;-58
2023/12/20 10:33:12;;;;;;;15.27;2.80;;;;;;;5.92;100.00;101258.03;5071805;28;20048;-58
2023/12/20 10:35:41;;;;;;;14.77;2.97;;;;;;;5.92;100.00;101260.63;5071946;28;20379;-58
2023/12/20 10:38:14;;;;;;;17.63;2.95;;;;;;;5.88;100.00;101258.22;5071995;28;20052;-58
2023/12/20 10:40:43;;;;;;;16.35;2.88;;;;;;;5.92;100.00;101247.59;5072366;28;20037;-47
2023/12/20 10:43:12;;;;;;;19.50;3.17;;;;;;;5.95;100.00;101245.78;5067936;28;20070;-46
2023/12/20 10:45:42;;;;;;;13.50;2.70;;;;;;;5.97;100.00;101241.34;5067592;28;20037;-46
2023/12/20 10:48:12;;;;;;;18.95;3.22;;;;;;;5.95;100.00;101235.34;5071114;28;20078;-47
2023/12/20 10:50:42;;;;;;;20.00;3.40;;;;;;;5.96;100.00;101226.56;5069890;28;20056;-48
2023/12/20 10:53:12;;;;;;;15.98;3.75;;;;;;;5.99;100.00;101232.56;5071387;28;20507;-47
2023/12/20 10:55:40;;;;;;;17.38;3.67;;;;;;;5.97;100.00;101223.94;5071394;28;20505;-45
2023/12/20 10:58:09;;;;;;;16.45;3.25;;;;;;;5.95;100.00;101228.34;5071758;28;20055;-48
2023/12/20 11:00:41;;;;;;;24.63;3.40;;;;;;;5.97;100.00;101228.28;5071402;28;20637;-48
2023/12/20 11:03:12;;;;;;;17.50;3.92;;;;;;;5.99;100.00;101226.50;5071303;28;20076;-47
2023/12/20 11:05:50;;;;;;;15.43;3.47;;;;;;;6.01;100.00;101219.44;5071253;28;20064;-49
2023/12/20 11:08:25;;;;;;;18.98;3.00;;;;;;;6.00;100.00;101218.59;5071323;28;20490;-45
2023/12/20 11:11:04;;;;;;;20.58;3.05;;;;;;;6.03;100.00;101217.63;5071388;28;20124;-46
2023/12/20 11:13:36;;;;;;;24.92;4.20;;;;;;;6.03;100.00;101218.47;5070247;28;20438;-46
2023/12/20 11:16:05;;;;;;;;;;;;;;;6.07;100.00;101212.22;5068396;28;20064;-45
2023/12/20 11:18:35;;;;;;;15.98;3.30;;;;;;;6.10;100.00;101213.84;5069979;28;19924;-46
2023/12/20 11:21:06;;;;;;;15.20;3.30;;;;;;;6.11;100.00;101199.91;5071115;28;20072;-45
2023/12/20 11:23:34;;;;;;;16.10;3.38;;;;;;;6.15;100.00;101200.59;5069706;28;20056;-46
2023/12/20 11:26:04;;;;;;;17.13;2.90;;;;;;;6.13;100.00;101200.66;5071173;28;20041;-47